sensor_id;sensor_type;location;lat;lon;timestamp;temperature;humidity
16893;DHT22;8563;52.242;9.098;2023-03-30T00:01:42;11.20;99.90
16893;DHT22;8563;52.242;9.098;2023-03-30T00:04:14;11.10;99.90
16893;DHT22;8563;52.242;9.098;2023-03-30T00:06:48;11.00;99.90
16893;DHT22;8563;52.242;9.098;2023-03-30T00:09:20;10.90;99.90
16893;DHT22;8563;52.242;9.098;2023-03-30T00:11:52;10.80;99.90
16893;DHT22;8563;52.242;9.098;2023-03-30T00:14:26;10.80;99.90
16893;DHT22;8563;52.242;9.098;2023-03-30T00:16:59;10.80;99.90
16893;DHT22;8563;52.242;9.098;2023-03-30T00:19:31;10.80;99.90
16893;DHT22;8563;52.242;9.098;2023-03-30T00:22:08;10.70;99.90
16893;DHT22;8563;52.242;9.098;2023-03-30T00:24:41;10.70;99.90
16893;DHT22;8563;52.242;9.098;2023-03-30T00:27:13;10.60;99.90
16893;DHT22;8563;52.242;9.098;2023-03-30T00:29:46;10.60;99.90
16893;DHT22;8563;52.242;9.098;2023-03-30T00:32:18;10.60;99.90
16893;DHT22;8563;52.242;9.098;2023-03-30T00:34:53;10.60;99.90
16893;DHT22;8563;52.242;9.098;2023-03-30T00:37:25;10.60;99.90
16893;DHT22;8563;52.242;9.098;2023-03-30T00:39:57;10.60;99.90
16893;DHT22;8563;52.242;9.098;2023-03-30T00:42:29;10.60;99.90
16893;DHT22;8563;52.242;9.098;2023-03-30T00:45:14;10.60;99.90
16893;DHT22;8563;52.242;9.098;2023-03-30T00:47:52;10.60;99.90
16893;DHT22;8563;52.242;9.098;2023-03-30T00:50:31;10.60;99.90
16893;DHT22;8563;52.242;9.098;2023-03-30T00:53:09;10.70;99.90
16893;DHT22;8563;52.242;9.098;2023-03-30T00:55:44;10.70;99.90
16893;DHT22;8563;52.242;9.098;2023-03-30T00:58:18;10.60;99.90
16893;DHT22;8563;52.242;9.098;2023-03-30T01:00:53;10.60;99.90
16893;DHT22;8563;52.242;9.098;2023-03-30T01:03:30;10.50;99.90
16893;DHT22;8563;52.242;9.098;2023-03-30T01:06:05;10.40;99.90
16893;DHT22;8563;52.242;9.098;2023-03-30T01:08:38;10.40;99.90
16893;DHT22;8563;52.242;9.098;2023-03-30T01:11:12;10.40;99.90
16893;DHT22;8563;52.242;9.098;2023-03-30T01:13:46;10.40;99.90
16893;DHT22;8563;52.242;9.098;2023-03-30T01:16:27;10.40;99.90
16893;DHT22;8563;52.242;9.098;2023-03-30T01:19:18;10.40;99.90
16893;DHT22;8563;52.242;9.098;2023-03-30T01:34:31;10.30;99.90
16893;DHT22;8563;52.242;9.098;2023-03-30T01:40:31;10.20;99.90
16893;DHT22;8563;52.242;9.098;2023-03-30T01:43:14;10.20;99.90
16893;DHT22;8563;52.242;9.098;2023-03-30T01:45:54;10.30;99.90
16893;DHT22;8563;52.242;9.098;2023-03-30T01:48:35;10.30;99.90
16893;DHT22;8563;52.242;9.098;2023-03-30T01:51:19;10.40;99.90
16893;DHT22;8563;52.242;9.098;2023-03-30T01:53:56;10.50;99.90
16893;DHT22;8563;52.242;9.098;2023-03-30T01:56:34;10.60;99.90
16893;DHT22;8563;52.242;9.098;2023-03-30T01:59:10;10.60;99.90
16893;DHT22;8563;52.242;9.098;2023-03-30T02:01:44;10.70;99.90
16893;DHT22;8563;52.242;9.098;2023-03-30T02:04:21;10.80;99.90
16893;DHT22;8563;52.242;9.098;2023-03-30T02:06:57;10.80;99.90
16893;DHT22;8563;52.242;9.098;2023-03-30T02:09:31;10.80;99.90
16893;DHT22;8563;52.242;9.098;2023-03-30T02:12:07;10.70;99.90
16893;DHT22;8563;52.242;9.098;2023-03-30T02:14:40;10.70;99.90
16893;DHT22;8563;52.242;9.098;2023-03-30T02:17:14;10.80;99.90
16893;DHT22;8563;52.242;9.098;2023-03-30T02:19:48;10.90;99.90
16893;DHT22;8563;52.242;9.098;2023-03-30T02:22:22;11.00;99.90
16893;DHT22;8563;52.242;9.098;2023-03-30T02:24:56;11.10;99.90
16893;DHT22;8563;52.242;9.098;2023-03-30T02:27:30;11.20;99.90
16893;DHT22;8563;52.242;9.098;2023-03-30T02:30:04;11.20;99.90
16893;DHT22;8563;52.242;9.098;2023-03-30T02:32:41;11.30;99.90
16893;DHT22;8563;52.242;9.098;2023-03-30T02:35:30;11.30;99.90
16893;DHT22;8563;52.242;9.098;2023-03-30T02:41:27;11.50;99.90
16893;DHT22;8563;52.242;9.098;2023-03-30T02:44:09;11.60;99.90
16893;DHT22;8563;52.242;9.098;2023-03-30T02:46:59;11.60;99.90
16893;DHT22;8563;52.242;9.098;2023-03-30T02:49:41;11.70;99.90
16893;DHT22;8563;52.242;9.098;2023-03-30T02:52:23;11.60;99.90
16893;DHT22;8563;52.242;9.098;2023-03-30T02:55:10;11.70;99.90
16893;DHT22;8563;52.242;9.098;2023-03-30T02:58:04;11.70;99.90
16893;DHT22;8563;52.242;9.098;2023-03-30T03:00:49;11.80;99.90
16893;DHT22;8563;52.242;9.098;2023-03-30T03:03:32;11.80;99.90
16893;DHT22;8563;52.242;9.098;2023-03-30T03:06:06;11.80;99.90
16893;DHT22;8563;52.242;9.098;2023-03-30T03:08:43;11.80;99.90
16893;DHT22;8563;52.242;9.098;2023-03-30T03:11:22;11.80;99.90
16893;DHT22;8563;52.242;9.098;2023-03-30T03:13:55;11.90;99.90
16893;DHT22;8563;52.242;9.098;2023-03-30T03:16:30;11.90;99.90
16893;DHT22;8563;52.242;9.098;2023-03-30T03:19:28;11.90;99.90
16893;DHT22;8563;52.242;9.098;2023-03-30T03:22:00;11.90;99.90
16893;DHT22;8563;52.242;9.098;2023-03-30T03:24:35;11.90;99.90
16893;DHT22;8563;52.242;9.098;2023-03-30T03:27:24;12.00;99.90
16893;DHT22;8563;52.242;9.098;2023-03-30T03:30:07;12.00;99.90
16893;DHT22;8563;52.242;9.098;2023-03-30T03:32:48;12.10;99.90
16893;DHT22;8563;52.242;9.098;2023-03-30T03:35:21;12.20;99.90
16893;DHT22;8563;52.242;9.098;2023-03-30T03:37:54;12.30;99.90
16893;DHT22;8563;52.242;9.098;2023-03-30T03:40:26;12.40;99.90
16893;DHT22;8563;52.242;9.098;2023-03-30T03:42:58;12.50;99.90
16893;DHT22;8563;52.242;9.098;2023-03-30T03:45:30;12.50;99.90
16893;DHT22;8563;52.242;9.098;2023-03-30T03:48:05;12.50;99.90
16893;DHT22;8563;52.242;9.098;2023-03-30T03:50:53;12.40;99.90
16893;DHT22;8563;52.242;9.098;2023-03-30T03:53:27;12.50;99.90
16893;DHT22;8563;52.242;9.098;2023-03-30T03:56:04;12.50;99.90
16893;DHT22;8563;52.242;9.098;2023-03-30T03:58:38;12.60;99.90
16893;DHT22;8563;52.242;9.098;2023-03-30T04:01:10;12.60;99.90
16893;DHT22;8563;52.242;9.098;2023-03-30T04:03:45;12.50;99.90
16893;DHT22;8563;52.242;9.098;2023-03-30T04:06:17;12.50;99.90
16893;DHT22;8563;52.242;9.098;2023-03-30T04:08:50;12.50;99.90
16893;DHT22;8563;52.242;9.098;2023-03-30T04:11:32;12.60;99.90
16893;DHT22;8563;52.242;9.098;2023-03-30T04:14:30;12.60;99.90
16893;DHT22;8563;52.242;9.098;2023-03-30T04:17:22;12.60;99.90
16893;DHT22;8563;52.242;9.098;2023-03-30T04:20:32;12.60;99.90
16893;DHT22;8563;52.242;9.098;2023-03-30T04:23:42;12.60;99.90
16893;DHT22;8563;52.242;9.098;2023-03-30T04:26:37;12.60;99.90
16893;DHT22;8563;52.242;9.098;2023-03-30T04:29:34;12.60;99.90
16893;DHT22;8563;52.242;9.098;2023-03-30T04:32:42;12.50;99.90
16893;DHT22;8563;52.242;9.098;2023-03-30T04:35:34;12.50;99.90
16893;DHT22;8563;52.242;9.098;2023-03-30T04:38:24;12.50;99.90
16893;DHT22;8563;52.242;9.098;2023-03-30T04:41:26;12.50;99.90
16893;DHT22;8563;52.242;9.098;2023-03-30T04:44:13;12.60;99.90
16893;DHT22;8563;52.242;9.098;2023-03-30T04:47:08;12.70;99.90
16893;DHT22;8563;52.242;9.098;2023-03-30T04:49:53;12.80;99.90
16893;DHT22;8563;52.242;9.098;2023-03-30T04:52:45;12.80;99.90
16893;DHT22;8563;52.242;9.098;2023-03-30T04:55:31;12.80;99.90
16893;DHT22;8563;52.242;9.098;2023-03-30T04:58:21;12.90;99.90
16893;DHT22;8563;52.242;9.098;2023-03-30T05:01:29;12.90;99.90
16893;DHT22;8563;52.242;9.098;2023-03-30T05:04:21;12.80;99.90
16893;DHT22;8563;52.242;9.098;2023-03-30T05:07:16;12.70;99.90
16893;DHT22;8563;52.242;9.098;2023-03-30T05:10:09;12.80;99.90
16893;DHT22;8563;52.242;9.098;2023-03-30T05:12:53;12.90;99.90
16893;DHT22;8563;52.242;9.098;2023-03-30T05:15:43;12.90;99.90
16893;DHT22;8563;52.242;9.098;2023-03-30T05:18:34;12.90;99.90
16893;DHT22;8563;52.242;9.098;2023-03-30T05:21:40;12.90;99.90
16893;DHT22;8563;52.242;9.098;2023-03-30T05:24:31;12.90;99.90
16893;DHT22;8563;52.242;9.098;2023-03-30T05:27:34;12.90;99.90
16893;DHT22;8563;52.242;9.098;2023-03-30T05:30:18;12.90;99.90
16893;DHT22;8563;52.242;9.098;2023-03-30T05:33:29;13.00;99.90
16893;DHT22;8563;52.242;9.098;2023-03-30T05:36:21;13.20;99.90
16893;DHT22;8563;52.242;9.098;2023-03-30T05:39:05;13.40;99.90
16893;DHT22;8563;52.242;9.098;2023-03-30T05:42:03;13.60;99.90
16893;DHT22;8563;52.242;9.098;2023-03-30T05:44:44;13.70;99.90
16893;DHT22;8563;52.242;9.098;2023-03-30T05:47:35;13.70;99.90
16893;DHT22;8563;52.242;9.098;2023-03-30T05:50:28;13.80;99.90
16893;DHT22;8563;52.242;9.098;2023-03-30T05:53:06;13.70;99.90
16893;DHT22;8563;52.242;9.098;2023-03-30T05:55:59;13.80;99.90
16893;DHT22;8563;52.242;9.098;2023-03-30T05:58:55;13.70;99.90
16893;DHT22;8563;52.242;9.098;2023-03-30T06:01:55;13.70;99.90
16893;DHT22;8563;52.242;9.098;2023-03-30T06:04:29;13.80;99.90
16893;DHT22;8563;52.242;9.098;2023-03-30T06:07:01;13.80;99.90
16893;DHT22;8563;52.242;9.098;2023-03-30T06:09:34;13.90;99.90
16893;DHT22;8563;52.242;9.098;2023-03-30T06:12:12;14.00;99.90
16893;DHT22;8563;52.242;9.098;2023-03-30T06:14:44;14.10;99.90
16893;DHT22;8563;52.242;9.098;2023-03-30T06:17:36;14.20;99.90
16893;DHT22;8563;52.242;9.098;2023-03-30T06:20:09;14.20;99.90
16893;DHT22;8563;52.242;9.098;2023-03-30T06:22:44;14.10;99.90
16893;DHT22;8563;52.242;9.098;2023-03-30T06:25:21;14.10;99.90
16893;DHT22;8563;52.242;9.098;2023-03-30T06:27:55;14.00;99.90
16893;DHT22;8563;52.242;9.098;2023-03-30T06:30:28;14.00;99.90
16893;DHT22;8563;52.242;9.098;2023-03-30T06:33:06;14.10;99.90
16893;DHT22;8563;52.242;9.098;2023-03-30T06:35:49;14.10;99.90
16893;DHT22;8563;52.242;9.098;2023-03-30T06:38:24;14.10;99.90
16893;DHT22;8563;52.242;9.098;2023-03-30T06:41:02;14.20;99.90
16893;DHT22;8563;52.242;9.098;2023-03-30T06:43:37;14.20;99.90
16893;DHT22;8563;52.242;9.098;2023-03-30T06:46:20;14.20;99.90
16893;DHT22;8563;52.242;9.098;2023-03-30T06:48:55;14.20;99.90
16893;DHT22;8563;52.242;9.098;2023-03-30T06:51:51;14.20;99.90
16893;DHT22;8563;52.242;9.098;2023-03-30T06:54:23;14.20;99.90
16893;DHT22;8563;52.242;9.098;2023-03-30T06:57:02;14.20;99.90
16893;DHT22;8563;52.242;9.098;2023-03-30T06:59:34;14.20;99.90
16893;DHT22;8563;52.242;9.098;2023-03-30T07:02:25;14.10;99.90
16893;DHT22;8563;52.242;9.098;2023-03-30T07:05:18;14.20;99.90
16893;DHT22;8563;52.242;9.098;2023-03-30T07:08:16;14.30;99.90
16893;DHT22;8563;52.242;9.098;2023-03-30T07:10:55;14.40;99.90
16893;DHT22;8563;52.242;9.098;2023-03-30T07:13:29;14.40;99.90
16893;DHT22;8563;52.242;9.098;2023-03-30T07:16:01;14.40;99.90
16893;DHT22;8563;52.242;9.098;2023-03-30T07:18:36;14.40;99.90
16893;DHT22;8563;52.242;9.098;2023-03-30T07:21:10;14.50;99.90
16893;DHT22;8563;52.242;9.098;2023-03-30T07:23:44;14.50;99.90
16893;DHT22;8563;52.242;9.098;2023-03-30T07:26:28;14.50;99.90
16893;DHT22;8563;52.242;9.098;2023-03-30T07:29:09;14.60;99.90
16893;DHT22;8563;52.242;9.098;2023-03-30T07:31:44;14.60;99.90
16893;DHT22;8563;52.242;9.098;2023-03-30T07:34:18;14.80;99.90
16893;DHT22;8563;52.242;9.098;2023-03-30T07:36:58;14.90;99.90
16893;DHT22;8563;52.242;9.098;2023-03-30T07:39:33;15.00;99.90
16893;DHT22;8563;52.242;9.098;2023-03-30T07:42:08;15.10;99.90
16893;DHT22;8563;52.242;9.098;2023-03-30T07:44:40;15.10;99.90
16893;DHT22;8563;52.242;9.098;2023-03-30T07:47:19;15.00;99.90
16893;DHT22;8563;52.242;9.098;2023-03-30T07:49:51;15.00;99.90
16893;DHT22;8563;52.242;9.098;2023-03-30T07:52:24;15.00;99.90
16893;DHT22;8563;52.242;9.098;2023-03-30T07:55:02;15.00;99.90
16893;DHT22;8563;52.242;9.098;2023-03-30T07:57:55;15.00;99.90
16893;DHT22;8563;52.242;9.098;2023-03-30T08:00:27;15.00;99.90
16893;DHT22;8563;52.242;9.098;2023-03-30T08:03:32;15.10;99.90
16893;DHT22;8563;52.242;9.098;2023-03-30T08:06:07;15.20;99.90
16893;DHT22;8563;52.242;9.098;2023-03-30T08:08:44;15.20;99.90
16893;DHT22;8563;52.242;9.098;2023-03-30T08:11:16;15.30;99.90
16893;DHT22;8563;52.242;9.098;2023-03-30T08:13:48;15.40;99.90
16893;DHT22;8563;52.242;9.098;2023-03-30T08:16:20;15.30;99.90
16893;DHT22;8563;52.242;9.098;2023-03-30T08:18:52;15.50;99.90
16893;DHT22;8563;52.242;9.098;2023-03-30T08:21:25;15.60;99.90
16893;DHT22;8563;52.242;9.098;2023-03-30T08:23:58;15.70;99.90
16893;DHT22;8563;52.242;9.098;2023-03-30T08:26:31;15.70;99.90
16893;DHT22;8563;52.242;9.098;2023-03-30T08:29:03;15.80;99.90
16893;DHT22;8563;52.242;9.098;2023-03-30T08:31:37;16.00;99.90
16893;DHT22;8563;52.242;9.098;2023-03-30T08:34:09;15.90;99.90
16893;DHT22;8563;52.242;9.098;2023-03-30T08:36:41;15.90;99.90
16893;DHT22;8563;52.242;9.098;2023-03-30T08:39:15;15.90;99.90
16893;DHT22;8563;52.242;9.098;2023-03-30T08:42:15;15.90;99.90
16893;DHT22;8563;52.242;9.098;2023-03-30T08:44:53;16.00;99.90
16893;DHT22;8563;52.242;9.098;2023-03-30T08:47:31;16.10;99.90
16893;DHT22;8563;52.242;9.098;2023-03-30T08:50:07;16.40;99.90
16893;DHT22;8563;52.242;9.098;2023-03-30T08:52:42;16.40;99.90
16893;DHT22;8563;52.242;9.098;2023-03-30T08:55:20;16.60;99.90
16893;DHT22;8563;52.242;9.098;2023-03-30T08:57:57;16.70;99.90
16893;DHT22;8563;52.242;9.098;2023-03-30T09:00:36;16.70;99.90
16893;DHT22;8563;52.242;9.098;2023-03-30T09:03:18;16.70;99.90
16893;DHT22;8563;52.242;9.098;2023-03-30T09:05:57;16.50;99.90
16893;DHT22;8563;52.242;9.098;2023-03-30T09:08:32;16.20;99.90
16893;DHT22;8563;52.242;9.098;2023-03-30T09:11:10;15.80;99.90
16893;DHT22;8563;52.242;9.098;2023-03-30T09:13:45;15.50;99.90
16893;DHT22;8563;52.242;9.098;2023-03-30T09:16:21;15.40;99.90
16893;DHT22;8563;52.242;9.098;2023-03-30T09:19:00;15.20;99.90
16893;DHT22;8563;52.242;9.098;2023-03-30T09:21:33;15.10;99.90
16893;DHT22;8563;52.242;9.098;2023-03-30T09:24:11;15.20;99.90
16893;DHT22;8563;52.242;9.098;2023-03-30T09:26:50;15.30;99.90
16893;DHT22;8563;52.242;9.098;2023-03-30T09:29:25;15.30;99.90
16893;DHT22;8563;52.242;9.098;2023-03-30T09:32:03;15.30;99.90
16893;DHT22;8563;52.242;9.098;2023-03-30T09:34:45;15.40;99.90
16893;DHT22;8563;52.242;9.098;2023-03-30T09:37:17;15.40;99.90
16893;DHT22;8563;52.242;9.098;2023-03-30T09:39:51;15.50;99.90
16893;DHT22;8563;52.242;9.098;2023-03-30T09:42:32;15.70;99.90
16893;DHT22;8563;52.242;9.098;2023-03-30T09:45:12;16.10;99.90
16893;DHT22;8563;52.242;9.098;2023-03-30T09:47:45;16.40;99.90
16893;DHT22;8563;52.242;9.098;2023-03-30T09:50:21;16.30;99.90
16893;DHT22;8563;52.242;9.098;2023-03-30T09:52:56;16.10;99.90
16893;DHT22;8563;52.242;9.098;2023-03-30T09:55:31;15.70;99.90
16893;DHT22;8563;52.242;9.098;2023-03-30T09:58:12;15.60;99.90
16893;DHT22;8563;52.242;9.098;2023-03-30T10:00:45;15.40;99.90
16893;DHT22;8563;52.242;9.098;2023-03-30T10:03:19;15.10;99.90
16893;DHT22;8563;52.242;9.098;2023-03-30T10:06:00;14.90;99.90
16893;DHT22;8563;52.242;9.098;2023-03-30T10:08:38;14.50;99.90
16893;DHT22;8563;52.242;9.098;2023-03-30T10:11:11;13.90;99.90
16893;DHT22;8563;52.242;9.098;2023-03-30T10:13:45;13.60;99.90
16893;DHT22;8563;52.242;9.098;2023-03-30T10:16:23;13.30;99.90
16893;DHT22;8563;52.242;9.098;2023-03-30T10:18:59;13.20;99.90
16893;DHT22;8563;52.242;9.098;2023-03-30T10:21:36;13.30;99.90
16893;DHT22;8563;52.242;9.098;2023-03-30T10:24:19;13.50;99.90
16893;DHT22;8563;52.242;9.098;2023-03-30T10:26:55;13.70;99.90
16893;DHT22;8563;52.242;9.098;2023-03-30T10:29:29;13.90;99.90
16893;DHT22;8563;52.242;9.098;2023-03-30T10:32:09;14.10;99.90
16893;DHT22;8563;52.242;9.098;2023-03-30T10:34:43;14.30;99.90
16893;DHT22;8563;52.242;9.098;2023-03-30T10:37:20;14.50;99.90
16893;DHT22;8563;52.242;9.098;2023-03-30T10:39:54;14.80;99.90
16893;DHT22;8563;52.242;9.098;2023-03-30T10:42:29;14.90;99.90
16893;DHT22;8563;52.242;9.098;2023-03-30T10:45:06;14.90;99.90
16893;DHT22;8563;52.242;9.098;2023-03-30T10:47:51;14.80;99.90
16893;DHT22;8563;52.242;9.098;2023-03-30T10:50:30;14.80;99.90
16893;DHT22;8563;52.242;9.098;2023-03-30T10:53:14;14.90;99.90
16893;DHT22;8563;52.242;9.098;2023-03-30T10:55:51;15.10;99.90
16893;DHT22;8563;52.242;9.098;2023-03-30T10:58:37;15.30;99.90
16893;DHT22;8563;52.242;9.098;2023-03-30T11:01:16;15.30;99.90
16893;DHT22;8563;52.242;9.098;2023-03-30T11:03:54;15.30;99.90
16893;DHT22;8563;52.242;9.098;2023-03-30T11:06:31;15.40;99.90
16893;DHT22;8563;52.242;9.098;2023-03-30T11:09:11;15.30;99.90
16893;DHT22;8563;52.242;9.098;2023-03-30T11:11:48;15.40;99.90
16893;DHT22;8563;52.242;9.098;2023-03-30T11:14:25;15.40;99.90
16893;DHT22;8563;52.242;9.098;2023-03-30T11:17:03;15.50;99.90
16893;DHT22;8563;52.242;9.098;2023-03-30T11:19:41;15.50;99.90
16893;DHT22;8563;52.242;9.098;2023-03-30T11:22:22;15.60;99.90
16893;DHT22;8563;52.242;9.098;2023-03-30T11:24:58;15.70;99.90
16893;DHT22;8563;52.242;9.098;2023-03-30T11:27:35;15.80;99.90
16893;DHT22;8563;52.242;9.098;2023-03-30T11:30:14;16.00;99.90
16893;DHT22;8563;52.242;9.098;2023-03-30T11:32:52;16.30;99.90
16893;DHT22;8563;52.242;9.098;2023-03-30T11:35:32;16.60;99.90
16893;DHT22;8563;52.242;9.098;2023-03-30T11:38:11;16.80;99.90
16893;DHT22;8563;52.242;9.098;2023-03-30T11:40:45;17.30;99.90
16893;DHT22;8563;52.242;9.098;2023-03-30T11:43:19;17.30;99.90
16893;DHT22;8563;52.242;9.098;2023-03-30T11:46:00;17.10;99.90
16893;DHT22;8563;52.242;9.098;2023-03-30T11:49:01;17.10;99.90
16893;DHT22;8563;52.242;9.098;2023-03-30T11:51:46;16.60;99.90
16893;DHT22;8563;52.242;9.098;2023-03-30T11:54:34;16.30;99.90
16893;DHT22;8563;52.242;9.098;2023-03-30T11:57:16;16.60;99.90
16893;DHT22;8563;52.242;9.098;2023-03-30T11:59:58;17.00;99.90
16893;DHT22;8563;52.242;9.098;2023-03-30T12:02:45;17.00;99.90
16893;DHT22;8563;52.242;9.098;2023-03-30T12:05:26;17.10;99.90
16893;DHT22;8563;52.242;9.098;2023-03-30T12:08:08;16.90;99.90
16893;DHT22;8563;52.242;9.098;2023-03-30T12:10:45;16.90;99.90
16893;DHT22;8563;52.242;9.098;2023-03-30T12:13:19;16.80;99.90
16893;DHT22;8563;52.242;9.098;2023-03-30T12:15:54;16.80;99.90
16893;DHT22;8563;52.242;9.098;2023-03-30T12:18:35;16.70;99.90
16893;DHT22;8563;52.242;9.098;2023-03-30T12:21:20;16.60;99.90
16893;DHT22;8563;52.242;9.098;2023-03-30T12:24:03;16.40;99.90
16893;DHT22;8563;52.242;9.098;2023-03-30T12:26:39;16.30;99.90
16893;DHT22;8563;52.242;9.098;2023-03-30T12:29:12;16.40;99.90
16893;DHT22;8563;52.242;9.098;2023-03-30T12:31:50;16.50;99.90
16893;DHT22;8563;52.242;9.098;2023-03-30T12:34:35;16.30;99.90
16893;DHT22;8563;52.242;9.098;2023-03-30T12:37:11;16.20;99.90
16893;DHT22;8563;52.242;9.098;2023-03-30T12:39:47;16.00;99.50
16893;DHT22;8563;52.242;9.098;2023-03-30T12:42:22;15.90;99.90
16893;DHT22;8563;52.242;9.098;2023-03-30T12:45:28;15.90;99.90
16893;DHT22;8563;52.242;9.098;2023-03-30T12:48:24;15.90;99.90
16893;DHT22;8563;52.242;9.098;2023-03-30T12:51:10;15.80;99.90
16893;DHT22;8563;52.242;9.098;2023-03-30T12:54:04;16.00;99.90
16893;DHT22;8563;52.242;9.098;2023-03-30T12:56:48;16.40;99.90
16893;DHT22;8563;52.242;9.098;2023-03-30T12:59:46;16.60;99.90
16893;DHT22;8563;52.242;9.098;2023-03-30T13:02:42;16.60;99.90
16893;DHT22;8563;52.242;9.098;2023-03-30T13:05:22;16.60;99.90
16893;DHT22;8563;52.242;9.098;2023-03-30T13:07:56;16.50;99.90
16893;DHT22;8563;52.242;9.098;2023-03-30T13:10:40;16.40;99.90
16893;DHT22;8563;52.242;9.098;2023-03-30T13:13:20;16.20;99.90
16893;DHT22;8563;52.242;9.098;2023-03-30T13:15:53;16.10;99.90
16893;DHT22;8563;52.242;9.098;2023-03-30T13:18:40;15.90;99.90
16893;DHT22;8563;52.242;9.098;2023-03-30T13:21:23;15.90;99.90
16893;DHT22;8563;52.242;9.098;2023-03-30T13:26:53;15.80;99.90
16893;DHT22;8563;52.242;9.098;2023-03-30T13:29:41;15.50;99.90
16893;DHT22;8563;52.242;9.098;2023-03-30T13:32:26;15.20;99.90
16893;DHT22;8563;52.242;9.098;2023-03-30T13:35:13;15.10;99.90
16893;DHT22;8563;52.242;9.098;2023-03-30T13:40:58;15.30;99.90
16893;DHT22;8563;52.242;9.098;2023-03-30T13:43:46;15.40;99.90
16893;DHT22;8563;52.242;9.098;2023-03-30T13:46:27;15.60;99.90
16893;DHT22;8563;52.242;9.098;2023-03-30T13:49:16;15.60;99.90
16893;DHT22;8563;52.242;9.098;2023-03-30T13:51:51;15.80;99.90
16893;DHT22;8563;52.242;9.098;2023-03-30T13:54:26;16.10;99.90
16893;DHT22;8563;52.242;9.098;2023-03-30T13:57:04;16.20;99.90
16893;DHT22;8563;52.242;9.098;2023-03-30T13:59:42;16.00;99.90
16893;DHT22;8563;52.242;9.098;2023-03-30T14:02:17;15.70;99.90
16893;DHT22;8563;52.242;9.098;2023-03-30T14:04:50;15.50;99.90
16893;DHT22;8563;52.242;9.098;2023-03-30T14:07:22;15.50;99.90
16893;DHT22;8563;52.242;9.098;2023-03-30T14:10:03;15.60;99.90
16893;DHT22;8563;52.242;9.098;2023-03-30T14:12:37;15.70;99.90
16893;DHT22;8563;52.242;9.098;2023-03-30T14:15:20;15.80;99.90
16893;DHT22;8563;52.242;9.098;2023-03-30T14:17:54;15.90;99.90
16893;DHT22;8563;52.242;9.098;2023-03-30T14:20:45;16.10;99.90
16893;DHT22;8563;52.242;9.098;2023-03-30T14:23:22;16.20;99.90
16893;DHT22;8563;52.242;9.098;2023-03-30T14:25:57;16.30;99.90
16893;DHT22;8563;52.242;9.098;2023-03-30T14:28:33;16.40;99.90
16893;DHT22;8563;52.242;9.098;2023-03-30T14:31:13;16.50;99.90
16893;DHT22;8563;52.242;9.098;2023-03-30T14:33:47;16.50;99.90
16893;DHT22;8563;52.242;9.098;2023-03-30T14:36:20;16.20;99.90
16893;DHT22;8563;52.242;9.098;2023-03-30T14:38:53;15.90;99.90
16893;DHT22;8563;52.242;9.098;2023-03-30T14:41:27;15.70;99.90
16893;DHT22;8563;52.242;9.098;2023-03-30T14:44:02;15.50;99.90
16893;DHT22;8563;52.242;9.098;2023-03-30T14:46:38;15.30;99.90
16893;DHT22;8563;52.242;9.098;2023-03-30T14:49:15;14.90;99.90
16893;DHT22;8563;52.242;9.098;2023-03-30T14:51:50;14.40;99.90
16893;DHT22;8563;52.242;9.098;2023-03-30T14:54:23;14.50;99.90
16893;DHT22;8563;52.242;9.098;2023-03-30T14:56:57;14.60;99.90
16893;DHT22;8563;52.242;9.098;2023-03-30T14:59:32;14.60;99.90
16893;DHT22;8563;52.242;9.098;2023-03-30T15:02:16;14.70;99.90
16893;DHT22;8563;52.242;9.098;2023-03-30T15:04:49;14.80;99.90
16893;DHT22;8563;52.242;9.098;2023-03-30T15:07:22;14.90;99.90
16893;DHT22;8563;52.242;9.098;2023-03-30T15:09:56;15.00;99.90
16893;DHT22;8563;52.242;9.098;2023-03-30T15:12:32;15.10;99.90
16893;DHT22;8563;52.242;9.098;2023-03-30T15:15:07;15.10;99.90
16893;DHT22;8563;52.242;9.098;2023-03-30T15:17:44;15.20;99.90
16893;DHT22;8563;52.242;9.098;2023-03-30T15:20:18;15.30;99.90
16893;DHT22;8563;52.242;9.098;2023-03-30T15:22:51;15.60;99.90
16893;DHT22;8563;52.242;9.098;2023-03-30T15:25:30;15.60;99.90
16893;DHT22;8563;52.242;9.098;2023-03-30T15:28:06;15.70;99.90
16893;DHT22;8563;52.242;9.098;2023-03-30T15:30:40;15.60;99.90
16893;DHT22;8563;52.242;9.098;2023-03-30T15:33:29;15.50;99.90
16893;DHT22;8563;52.242;9.098;2023-03-30T15:36:05;15.10;99.90
16893;DHT22;8563;52.242;9.098;2023-03-30T15:38:44;14.80;99.90
16893;DHT22;8563;52.242;9.098;2023-03-30T15:41:20;14.80;99.90
16893;DHT22;8563;52.242;9.098;2023-03-30T15:43:55;14.80;99.90
16893;DHT22;8563;52.242;9.098;2023-03-30T15:46:31;14.60;99.90
16893;DHT22;8563;52.242;9.098;2023-03-30T15:49:05;14.80;99.90
16893;DHT22;8563;52.242;9.098;2023-03-30T15:51:39;14.70;99.90
16893;DHT22;8563;52.242;9.098;2023-03-30T15:54:14;14.50;99.90
16893;DHT22;8563;52.242;9.098;2023-03-30T15:56:52;14.50;99.90
16893;DHT22;8563;52.242;9.098;2023-03-30T15:59:29;14.50;99.90
16893;DHT22;8563;52.242;9.098;2023-03-30T16:02:13;14.40;99.90
16893;DHT22;8563;52.242;9.098;2023-03-30T16:04:47;14.30;99.90
16893;DHT22;8563;52.242;9.098;2023-03-30T16:07:21;14.30;99.90
16893;DHT22;8563;52.242;9.098;2023-03-30T16:09:54;14.30;99.90
16893;DHT22;8563;52.242;9.098;2023-03-30T16:12:28;14.10;99.90
16893;DHT22;8563;52.242;9.098;2023-03-30T16:15:00;14.00;99.90
16893;DHT22;8563;52.242;9.098;2023-03-30T16:17:32;13.90;99.90
16893;DHT22;8563;52.242;9.098;2023-03-30T16:20:14;13.90;99.90
16893;DHT22;8563;52.242;9.098;2023-03-30T16:22:47;13.80;99.90
16893;DHT22;8563;52.242;9.098;2023-03-30T16:25:21;13.70;99.90
16893;DHT22;8563;52.242;9.098;2023-03-30T16:27:54;13.70;99.90
16893;DHT22;8563;52.242;9.098;2023-03-30T16:30:28;13.70;99.90
16893;DHT22;8563;52.242;9.098;2023-03-30T16:33:04;13.60;99.90
16893;DHT22;8563;52.242;9.098;2023-03-30T16:35:37;13.50;99.90
16893;DHT22;8563;52.242;9.098;2023-03-30T16:38:12;13.40;99.90
16893;DHT22;8563;52.242;9.098;2023-03-30T16:40:49;13.40;99.90
16893;DHT22;8563;52.242;9.098;2023-03-30T16:43:22;13.30;99.90
16893;DHT22;8563;52.242;9.098;2023-03-30T16:45:55;13.20;99.90
16893;DHT22;8563;52.242;9.098;2023-03-30T16:48:27;13.20;99.90
16893;DHT22;8563;52.242;9.098;2023-03-30T16:51:00;13.30;99.90
16893;DHT22;8563;52.242;9.098;2023-03-30T16:53:32;13.30;99.90
16893;DHT22;8563;52.242;9.098;2023-03-30T16:56:05;13.30;99.90
16893;DHT22;8563;52.242;9.098;2023-03-30T16:58:38;13.40;99.90
16893;DHT22;8563;52.242;9.098;2023-03-30T17:01:10;13.60;99.90
16893;DHT22;8563;52.242;9.098;2023-03-30T17:03:45;13.70;99.90
16893;DHT22;8563;52.242;9.098;2023-03-30T17:06:19;13.70;99.90
16893;DHT22;8563;52.242;9.098;2023-03-30T17:08:52;13.60;99.90
16893;DHT22;8563;52.242;9.098;2023-03-30T17:11:25;13.60;99.90
16893;DHT22;8563;52.242;9.098;2023-03-30T17:13:57;13.50;99.90
16893;DHT22;8563;52.242;9.098;2023-03-30T17:16:29;13.50;99.90
16893;DHT22;8563;52.242;9.098;2023-03-30T17:19:01;13.60;99.90
16893;DHT22;8563;52.242;9.098;2023-03-30T17:21:35;13.50;99.90
16893;DHT22;8563;52.242;9.098;2023-03-30T17:24:07;13.50;99.90
16893;DHT22;8563;52.242;9.098;2023-03-30T17:26:40;13.40;99.90